Archer City, TX

3:23 PM CDT on July 23, 2016 (GMT -0500)
North Archer Co/Bowman | | Change Station

Elev 994 ft 33.81 °N, 98.58 °W | Updated 28 seconds ago

Scattered Clouds
Scattered Clouds
99.1 °F
Feels Like 94 °F
N
12.1
Wind Variable Wind from NW
Gusts 12.3 mph

Today
High -- | Low -- °F
--% Chance of Precip.
Yesterday
High -- | Low -- °F
Precip. -- in
Pressure 29.92 in
Visibility 10.0 miles
Clouds Scattered Clouds 8000 ft
Heat Index 94 °F
Dew Point 33 °F
Humidity 10%
Rainfall 0.00 in
Snow Depth Not available.
6:40 AM 8:40 PM
Waning Gibbous, 83% visible
METAR KCWC 232015Z AUTO 13008G16KT 10SM SCT080 38/16 A2992 RMK AO2 T03760157
Pressure 29.92 in
Visibility 10.0 miles
Clouds Scattered Clouds 8000 ft
Heat Index 94 °F
Dew Point 33 °F
Humidity 10%
Rainfall 0.00 in
Snow Depth Not available.
6:40 AM 8:40 PM
Waning Gibbous, 83% visible
METAR KCWC 232015Z AUTO 13008G16KT 10SM SCT080 38/16 A2992 RMK AO2 T03760157

10-Day Weather Forecast

Almanac

Astronomy

Jul. 23, 2016 Rise Set
Actual Time
Civil Twilight
Nautical Twilight
Astronomical Twilight
Moon
Length of Visible Light
Length of Day
Tomorrow will be .
, % of the Moon is Illuminated

Today's Extremes

State Highs State Lows

Community

WunderPhotos

Upload Photos

1,926,916 photos uploaded!

WunderBlog® & News

Nearby

Air Quality

  Air Quality AQ Index Pollutant
Not available.

Snow Depth

Station Depth Elevation

Earthquake Activity

City Distance Mag. Time & Date
Minimum magnitude displayed is 2.5.

Coastal Water Temperatures

Place Temperature

Stations

Nearby Weather Stations

Station Location Temp. Windchill Dew Point Humidity Wind Precip. Elev Updated Type
                   

Watches & Warnings

There are currently no watches in effect.